createdAt,value
2017-04-15T00:00:37.351Z,1014.6
2017-04-15T00:01:39.692Z,1014.5
2017-04-15T00:02:42.409Z,1014.6
2017-04-15T00:03:45.521Z,1014.6
2017-04-15T00:04:47.874Z,1014.5
2017-04-15T00:05:50.457Z,1014.5
2017-04-15T00:06:53.176Z,1014.5
2017-04-15T00:07:56.024Z,1014.5
2017-04-15T00:08:58.992Z,1014.5
2017-04-15T00:10:01.339Z,1014.5
2017-04-15T00:12:06.604Z,1014.5
2017-04-15T00:13:09.453Z,1014.5
2017-04-15T00:14:12.078Z,1014.5
2017-04-15T00:15:14.435Z,1014.4
2017-04-15T00:16:17.337Z,1014.4
2017-04-15T00:17:20.184Z,1014.4
2017-04-15T00:18:22.535Z,1014.4
2017-04-15T00:19:25.424Z,1014.4
2017-04-15T00:20:27.779Z,1014.4
2017-04-15T00:21:30.495Z,1014.4
2017-04-15T00:22:33.352Z,1014.4
2017-04-15T00:23:35.702Z,1014.4
2017-04-15T00:24:38.867Z,1014.4
2017-04-15T00:25:41.212Z,1014.4
2017-04-15T00:26:44.069Z,1014.4
2017-04-15T00:27:46.415Z,1014.4
2017-04-15T00:28:49.265Z,1014.4
2017-04-15T00:29:52.421Z,1014.3
2017-04-15T00:30:54.780Z,1014.3
2017-04-15T00:31:57.136Z,1014.3
2017-04-15T00:32:59.990Z,1014.3
2017-04-15T00:34:02.333Z,1014.3
2017-04-15T00:35:05.489Z,1014.3
2017-04-15T00:37:10.607Z,1014.3
2017-04-15T00:38:12.959Z,1014.3
2017-04-15T00:39:15.810Z,1014.3
2017-04-15T00:40:18.909Z,1014.3
2017-04-15T00:41:21.261Z,1014.3
2017-04-15T00:42:23.609Z,1014.3
2017-04-15T00:43:26.328Z,1014.3
2017-04-15T00:44:29.177Z,1014.2
2017-04-15T00:45:32.338Z,1014.3
2017-04-15T00:47:37.097Z,1014.2
2017-04-15T00:48:39.958Z,1014.3
2017-04-15T00:49:42.311Z,1014.3
2017-04-15T00:50:45.465Z,1014.3
2017-04-15T00:51:47.815Z,1014.3
2017-04-15T00:53:53.079Z,1014.2
2017-04-15T00:54:55.931Z,1014.2
2017-04-15T00:57:01.510Z,1014.2
2017-04-15T00:58:03.866Z,1014.3
2017-04-15T00:59:06.220Z,1014.3
2017-04-15T01:00:09.076Z,1014.2
2017-04-15T01:01:11.925Z,1014.3
2017-04-15T01:02:14.522Z,1014.3
2017-04-15T01:03:16.867Z,1014.3
2017-04-15T01:04:19.725Z,1014.3
2017-04-15T01:06:24.989Z,1014.2
2017-04-15T01:07:28.135Z,1014.3
2017-04-15T01:08:30.480Z,1014.3
2017-04-15T01:09:33.333Z,1014.3
2017-04-15T01:10:35.684Z,1014.2
2017-04-15T01:12:41.243Z,1014.2
2017-04-15T01:13:43.954Z,1014.2
2017-04-15T01:14:46.677Z,1014.2
2017-04-15T01:15:49.114Z,1014.2
2017-04-15T01:16:51.975Z,1014.1
2017-04-15T01:17:54.626Z,1014.1
2017-04-15T01:18:56.971Z,1014.1
2017-04-15T01:19:59.819Z,1014.1
2017-04-15T01:21:02.269Z,1014.1
2017-04-15T01:22:05.121Z,1014.1
2017-04-15T01:23:08.271Z,1014.1
2017-04-15T01:24:10.611Z,1014.1
2017-04-15T01:25:12.961Z,1014.1
2017-04-15T01:27:18.214Z,1014.1
2017-04-15T01:28:21.373Z,1014.1
2017-04-15T01:29:23.732Z,1014.1
2017-04-15T01:30:26.581Z,1014
2017-04-15T01:31:28.921Z,1014
2017-04-15T01:32:31.774Z,1014
2017-04-15T01:33:34.929Z,1014
2017-04-15T01:36:42.594Z,1014
2017-04-15T01:37:44.940Z,1014
2017-04-15T01:38:48.086Z,1014
2017-04-15T01:40:52.843Z,1014
2017-04-15T01:41:55.696Z,1014
2017-04-15T01:42:58.411Z,1013.9
2017-04-15T01:45:03.974Z,1014
2017-04-15T01:48:11.499Z,1013.9
2017-04-15T01:49:14.347Z,1013.9
2017-04-15T01:50:17.497Z,1013.9
2017-04-15T01:51:19.842Z,1013.9
2017-04-15T01:52:22.165Z,1013.9
2017-04-15T01:53:25.011Z,1013.9
2017-04-15T01:56:33.473Z,1013.9
2017-04-15T01:57:35.820Z,1013.8
2017-04-15T01:58:38.179Z,1013.9
2017-04-15T02:00:43.444Z,1013.8
2017-04-15T02:01:46.675Z,1013.8
2017-04-15T02:02:48.888Z,1013.8
2017-04-15T02:04:54.382Z,1013.8
2017-04-15T02:05:56.731Z,1013.8
2017-04-15T02:06:59.881Z,1013.9
2017-04-15T02:08:02.229Z,1013.8
2017-04-15T02:09:05.081Z,1013.8
2017-04-15T02:11:10.341Z,1013.8
2017-04-15T02:12:13.480Z,1013.8
2017-04-15T02:13:15.821Z,1013.8
2017-04-15T02:14:18.169Z,1013.7
2017-04-15T02:15:21.008Z,1013.7
2017-04-15T02:17:26.550Z,1013.8
2017-04-15T02:18:28.883Z,1013.8
2017-04-15T02:19:31.730Z,1013.8
2017-04-15T02:20:34.069Z,1013.8
2017-04-15T02:21:36.917Z,1013.8
2017-04-15T02:22:40.060Z,1013.8
2017-04-15T02:23:42.400Z,1013.7
2017-04-15T02:24:44.741Z,1013.7
2017-04-15T02:33:06.739Z,1013.7
2017-04-15T02:34:09.073Z,1013.7
2017-04-15T02:35:11.270Z,1013.6
2017-04-15T02:36:14.168Z,1013.6
2017-04-15T02:37:17.013Z,1013.6
2017-04-15T02:38:19.651Z,1013.6
2017-04-15T02:40:24.896Z,1013.6
2017-04-15T02:41:27.733Z,1013.6
2017-04-15T02:42:30.069Z,1013.6
2017-04-15T02:44:35.619Z,1013.5
2017-04-15T02:45:37.951Z,1013.5
2017-04-15T02:46:40.776Z,1013.5
2017-04-15T02:47:43.615Z,1013.5
2017-04-15T02:48:45.969Z,1013.5
2017-04-15T02:49:48.978Z,1013.5
2017-04-15T02:50:51.312Z,1013.5
2017-04-15T02:52:56.550Z,1013.5
2017-04-15T02:53:59.391Z,1013.5
2017-04-15T02:55:02.486Z,1013.5
2017-04-15T02:56:04.695Z,1013.5
2017-04-15T02:57:07.536Z,1013.4
2017-04-15T02:58:09.876Z,1013.4
2017-04-15T02:59:12.721Z,1013.4
2017-04-15T03:00:15.870Z,1013.4
2017-04-15T03:01:18.263Z,1013.4
2017-04-15T03:02:20.598Z,1013.4
2017-04-15T03:03:23.443Z,1013.3
2017-04-15T03:04:25.780Z,1013.3
2017-04-15T03:05:28.876Z,1013.3
2017-04-15T03:06:31.213Z,1013.3
2017-04-15T03:07:33.785Z,1013.3
2017-04-15T03:08:36.624Z,1013.3
2017-04-15T03:09:39.469Z,1013.3
2017-04-15T03:10:42.108Z,1013.3
2017-04-15T03:11:44.444Z,1013.2
2017-04-15T03:12:47.286Z,1013.3
2017-04-15T03:13:50.050Z,1013.3
2017-04-15T03:14:52.383Z,1013.2
2017-04-15T03:15:55.484Z,1013.2
2017-04-15T03:16:57.728Z,1013.2
2017-04-15T03:18:00.564Z,1013.2
2017-04-15T03:19:03.400Z,1013.2
2017-04-15T03:22:11.356Z,1013.1
2017-04-15T03:23:13.693Z,1013.1
2017-04-15T03:24:16.396Z,1013.1
2017-04-15T03:25:19.235Z,1013.1
2017-04-15T03:26:22.079Z,1013.1
2017-04-15T03:27:24.718Z,1013
2017-04-15T03:28:27.098Z,1013
2017-04-15T03:29:29.943Z,1013
2017-04-15T03:30:32.280Z,1013
2017-04-15T03:31:35.122Z,1013
2017-04-15T03:32:38.220Z,1013
2017-04-15T03:33:40.618Z,1012.9
2017-04-15T03:34:42.955Z,1013
2017-04-15T03:35:45.794Z,1013
2017-04-15T03:36:48.630Z,1013
2017-04-15T03:37:51.631Z,1013
2017-04-15T03:38:53.968Z,1013
2017-04-15T03:39:56.305Z,1013
2017-04-15T03:40:59.149Z,1013
2017-04-15T03:42:01.659Z,1013
2017-04-15T03:43:04.760Z,1012.9
2017-04-15T03:45:09.506Z,1012.9
2017-04-15T03:46:12.345Z,1012.9
2017-04-15T03:48:17.838Z,1012.9
2017-04-15T03:49:20.175Z,1012.9
2017-04-15T03:50:23.024Z,1012.9
2017-04-15T03:51:25.865Z,1012.8
2017-04-15T03:52:28.200Z,1012.9
2017-04-15T03:53:31.348Z,1012.9
2017-04-15T03:54:33.685Z,1012.8
2017-04-15T03:55:36.164Z,1012.9
2017-04-15T03:56:39.001Z,1012.8
2017-04-15T03:57:41.342Z,1012.8
2017-04-15T03:58:44.445Z,1012.8
2017-04-15T03:59:46.789Z,1012.8
2017-04-15T04:00:49.631Z,1012.8
2017-04-15T04:01:52.468Z,1012.8
2017-04-15T04:02:54.809Z,1012.8
2017-04-15T04:03:57.951Z,1012.8
2017-04-15T04:05:00.290Z,1012.8
2017-04-15T04:06:02.624Z,1012.8
2017-04-15T04:07:05.684Z,1012.8
2017-04-15T04:09:11.250Z,1012.8
2017-04-15T04:10:13.690Z,1012.8
2017-04-15T04:11:16.030Z,1012.8
2017-04-15T04:12:18.734Z,1012.8
2017-04-15T04:13:21.569Z,1012.8
2017-04-15T04:17:32.298Z,1012.7
2017-04-15T04:18:34.629Z,1012.7
2017-04-15T04:19:37.477Z,1012.7
2017-04-15T04:20:40.184Z,1012.7
2017-04-15T04:21:42.521Z,1012.7
2017-04-15T04:22:45.671Z,1012.7
2017-04-15T04:23:47.878Z,1012.7
2017-04-15T04:24:50.718Z,1012.7
2017-04-15T04:25:53.433Z,1012.7
2017-04-15T04:26:55.766Z,1012.7
2017-04-15T04:27:58.858Z,1012.6
2017-04-15T04:30:04.111Z,1012.6
2017-04-15T04:31:06.454Z,1012.6
2017-04-15T04:32:09.296Z,1012.6
2017-04-15T04:34:14.856Z,1012.5
2017-04-15T04:35:17.197Z,1012.6
2017-04-15T04:36:20.039Z,1012.6
2017-04-15T04:37:22.421Z,1012.6
2017-04-15T04:38:25.257Z,1012.5
2017-04-15T04:39:27.895Z,1012.6
2017-04-15T04:40:30.240Z,1012.5
2017-04-15T04:41:33.080Z,1012.6
2017-04-15T04:42:35.924Z,1012.5
2017-04-15T04:43:38.258Z,1012.6
2017-04-15T04:44:41.352Z,1012.5
2017-04-15T04:45:43.694Z,1012.5
2017-04-15T04:46:46.532Z,1012.6
2017-04-15T04:47:48.865Z,1012.6
2017-04-15T04:48:51.711Z,1012.6
2017-04-15T04:49:54.856Z,1012.6
2017-04-15T04:51:59.594Z,1012.6
2017-04-15T04:54:04.837Z,1012.5
2017-04-15T04:55:07.926Z,1012.5
2017-04-15T04:56:10.256Z,1012.6
2017-04-15T04:57:13.101Z,1012.5
2017-04-15T04:58:15.433Z,1012.5
2017-04-15T05:00:20.929Z,1012.5
2017-04-15T05:01:23.764Z,1012.5
2017-04-15T05:02:26.103Z,1012.5
2017-04-15T05:03:28.811Z,1012.5
2017-04-15T05:04:31.650Z,1012.5
2017-04-15T05:05:34.239Z,1012.5
2017-04-15T05:06:36.951Z,1012.5
2017-04-15T05:07:39.285Z,1012.5
2017-04-15T05:08:42.132Z,1012.5
2017-04-15T05:09:44.980Z,1012.5
2017-04-15T05:10:47.943Z,1012.4
2017-04-15T05:11:50.278Z,1012.4
2017-04-15T05:12:52.620Z,1012.4
2017-04-15T05:13:55.462Z,1012.4
2017-04-15T05:14:58.305Z,1012.4
2017-04-15T05:16:00.939Z,1012.4
2017-04-15T05:17:03.276Z,1012.4
2017-04-15T05:18:06.117Z,1012.4
2017-04-15T05:19:08.456Z,1012.3
2017-04-15T05:20:11.297Z,1012.3
2017-04-15T05:21:14.389Z,1012.3
2017-04-15T05:22:16.719Z,1012.3
2017-04-15T05:23:19.055Z,1012.3
2017-04-15T05:24:21.896Z,1012.3
2017-04-15T05:25:24.741Z,1012.3
2017-04-15T05:26:27.384Z,1012.3
2017-04-15T05:27:29.722Z,1012.3
2017-04-15T05:28:32.569Z,1012.3
2017-04-15T05:29:35.415Z,1012.2
2017-04-15T05:30:37.757Z,1012.3
2017-04-15T05:31:40.675Z,1012.2
2017-04-15T05:32:43.007Z,1012.2
2017-04-15T05:34:48.358Z,1012.2
2017-04-15T05:35:51.197Z,1012.2
2017-04-15T05:36:53.836Z,1012.2
2017-04-15T05:37:56.673Z,1012.1
2017-04-15T05:38:58.870Z,1012.1
2017-04-15T05:40:01.717Z,1012.1
2017-04-15T05:41:04.557Z,1012.1
2017-04-15T05:42:07.192Z,1012.1
2017-04-15T05:44:12.150Z,1012.1
2017-04-15T05:45:14.992Z,1012.1
2017-04-15T05:46:17.837Z,1012.1
2017-04-15T05:47:20.432Z,1012.1
2017-04-15T05:48:23.136Z,1012.1
2017-04-15T05:49:25.477Z,1012.1
2017-04-15T05:50:28.317Z,1012.1
2017-04-15T05:51:31.165Z,1012
2017-04-15T05:52:33.804Z,1012.1
2017-04-15T05:53:36.144Z,1012
2017-04-15T05:55:41.397Z,1012.1
2017-04-15T05:56:44.100Z,1012.1
2017-04-15T05:57:47.191Z,1012
2017-04-15T05:58:49.528Z,1012
2017-04-15T06:00:54.774Z,1012
2017-04-15T06:01:57.610Z,1012
2017-04-15T06:03:00.701Z,1012
2017-04-15T06:04:02.907Z,1012
2017-04-15T06:05:05.745Z,1012
2017-04-15T06:06:08.096Z,1012
2017-04-15T06:07:10.993Z,1012
2017-04-15T06:08:13.628Z,1012
2017-04-15T06:09:15.967Z,1012
2017-04-15T06:10:18.803Z,1012
2017-04-15T06:11:21.640Z,1012
2017-04-15T06:12:23.976Z,1012
2017-04-15T06:13:27.116Z,1012
2017-04-15T06:14:29.455Z,1012
2017-04-15T06:15:32.294Z,1012
2017-04-15T06:16:34.636Z,1012
2017-04-15T06:18:40.636Z,1012
2017-04-15T06:19:42.971Z,1012
2017-04-15T06:20:45.678Z,1012
2017-04-15T06:21:48.009Z,1012.1
2017-04-15T06:22:50.850Z,1012
2017-04-15T06:23:53.989Z,1012.1
2017-04-15T06:24:56.325Z,1012.1
2017-04-15T06:25:58.664Z,1012.1
2017-04-15T06:27:01.506Z,1012.1
2017-04-15T06:28:04.349Z,1012.1
2017-04-15T06:29:06.996Z,1012.1
2017-04-15T06:31:12.241Z,1012.1
2017-04-15T06:32:14.722Z,1012.1
2017-04-15T06:33:17.562Z,1012.1
2017-04-15T06:34:20.148Z,1012
2017-04-15T06:35:22.988Z,1012.1
2017-04-15T06:36:25.324Z,1012.1
2017-04-15T06:37:28.163Z,1012.1
2017-04-15T06:38:31.001Z,1012.1
2017-04-15T06:39:33.641Z,1012.2
2017-04-15T06:40:35.981Z,1012.1
2017-04-15T06:41:38.821Z,1012.2
2017-04-15T06:42:41.665Z,1012.1
2017-04-15T06:43:44.002Z,1012.1
2017-04-15T06:44:47.148Z,1012.2
2017-04-15T06:45:49.488Z,1012.2
2017-04-15T06:46:51.828Z,1012.2
2017-04-15T06:47:54.665Z,1012.2
2017-04-15T06:48:57.509Z,1012.2
2017-04-15T06:50:00.154Z,1012.1
2017-04-15T06:51:02.489Z,1012.2
2017-04-15T06:52:05.330Z,1012.2
2017-04-15T06:53:08.168Z,1012.1
2017-04-15T06:54:10.501Z,1012.2
2017-04-15T06:55:13.799Z,1012.1
2017-04-15T06:56:16.142Z,1012.1
2017-04-15T06:57:18.483Z,1012.1
2017-04-15T06:59:24.231Z,1012
2017-04-15T07:00:26.866Z,1012
2017-04-15T07:01:29.202Z,1012
2017-04-15T07:02:32.037Z,1012.1
2017-04-15T07:03:34.875Z,1012.1
2017-04-15T07:04:37.223Z,1012.1
2017-04-15T07:05:40.316Z,1012.1
2017-04-15T07:06:42.649Z,1012.1
2017-04-15T07:07:45.349Z,1012.1
2017-04-15T07:08:48.188Z,1012
2017-04-15T07:09:50.527Z,1012
2017-04-15T07:10:53.619Z,1012
2017-04-15T07:11:55.825Z,1012
2017-04-15T07:12:58.666Z,1012
2017-04-15T07:14:01.365Z,1012
2017-04-15T07:15:04.076Z,1012
2017-04-15T07:16:07.230Z,1012
2017-04-15T07:17:09.570Z,1012
2017-04-15T07:18:11.906Z,1011.9
2017-04-15T07:19:14.747Z,1011.9
2017-04-15T07:20:17.592Z,1012
2017-04-15T07:21:20.230Z,1012
2017-04-15T07:22:22.568Z,1011.9
2017-04-15T07:23:25.412Z,1011.9
2017-04-15T07:24:28.259Z,1011.9
2017-04-15T07:25:30.598Z,1011.9
2017-04-15T07:26:33.740Z,1011.9
2017-04-15T07:27:36.074Z,1011.9
2017-04-15T07:28:38.919Z,1011.8
2017-04-15T07:29:41.319Z,1011.9
2017-04-15T07:30:44.261Z,1011.9
2017-04-15T07:31:46.999Z,1011.9
2017-04-15T07:32:49.333Z,1011.9
2017-04-15T07:33:52.173Z,1011.9
2017-04-15T07:34:54.519Z,1012
2017-04-15T07:35:57.354Z,1012
2017-04-15T07:37:00.499Z,1012
2017-04-15T07:38:02.847Z,1012
2017-04-15T07:39:05.191Z,1012
2017-04-15T07:40:07.895Z,1012
2017-04-15T07:41:10.741Z,1012
2017-04-15T07:42:13.930Z,1011.9
2017-04-15T07:43:16.269Z,1012
2017-04-15T07:44:18.820Z,1011.9
2017-04-15T07:45:21.660Z,1012
2017-04-15T07:46:23.998Z,1012
2017-04-15T07:47:27.140Z,1012
2017-04-15T07:49:31.886Z,1012
2017-04-15T07:50:34.726Z,1012
2017-04-15T07:51:37.563Z,1012
2017-04-15T07:52:40.202Z,1012
2017-04-15T07:53:43.043Z,1012
2017-04-15T07:54:45.383Z,1012
2017-04-15T07:55:48.230Z,1012.1
2017-04-15T07:56:50.584Z,1012
2017-04-15T07:57:53.725Z,1012
2017-04-15T07:58:56.066Z,1012
2017-04-15T07:59:58.901Z,1012
2017-04-15T08:01:01.240Z,1012
2017-04-15T08:03:07.290Z,1011.9
2017-04-15T08:04:09.624Z,1011.9
2017-04-15T08:05:11.957Z,1012
2017-04-15T08:06:14.797Z,1011.9
2017-04-15T08:07:17.637Z,1011.9
2017-04-15T08:08:20.271Z,1011.8
2017-04-15T08:09:22.644Z,1011.8
2017-04-15T08:10:25.485Z,1011.9
2017-04-15T08:11:28.337Z,1011.8
2017-04-15T08:12:30.685Z,1011.8
2017-04-15T08:13:33.827Z,1011.9
2017-04-15T08:15:39.075Z,1011.9
2017-04-15T08:16:41.411Z,1011.8
2017-04-15T08:17:44.252Z,1011.9
2017-04-15T08:18:46.848Z,1011.8
2017-04-15T08:20:52.093Z,1011.8
2017-04-15T08:21:54.930Z,1011.8
2017-04-15T08:22:57.319Z,1011.9
2017-04-15T08:24:00.410Z,1011.8
2017-04-15T08:25:02.745Z,1011.8
2017-04-15T08:26:05.316Z,1011.8
2017-04-15T08:27:08.156Z,1011.8
2017-04-15T08:28:10.997Z,1011.8
2017-04-15T08:29:14.007Z,1011.8
2017-04-15T08:30:16.215Z,1011.8
2017-04-15T08:31:19.049Z,1011.8
2017-04-15T08:32:21.785Z,1011.8
2017-04-15T08:33:24.117Z,1011.8
2017-04-15T08:34:27.361Z,1011.8
2017-04-15T08:35:29.430Z,1011.8
2017-04-15T08:36:32.289Z,1011.8
2017-04-15T08:37:35.125Z,1011.8
2017-04-15T08:38:37.461Z,1011.8
2017-04-15T08:39:40.548Z,1011.7
2017-04-15T08:40:42.905Z,1011.6
2017-04-15T08:41:45.750Z,1011.7
2017-04-15T08:42:48.085Z,1011.7
2017-04-15T08:43:50.928Z,1011.8
2017-04-15T08:44:54.076Z,1011.7
2017-04-15T08:45:56.410Z,1011.7
2017-04-15T08:46:58.743Z,1011.6
2017-04-15T08:48:01.735Z,1011.6
2017-04-15T08:49:04.072Z,1011.7
2017-04-15T08:50:07.176Z,1011.6
2017-04-15T08:51:09.509Z,1011.7
2017-04-15T08:52:12.351Z,1011.8
2017-04-15T08:53:14.687Z,1011.7
2017-04-15T08:54:17.527Z,1011.7
2017-04-15T08:55:20.676Z,1011.7
2017-04-15T08:56:23.012Z,1011.7
2017-04-15T08:57:25.849Z,1011.7
2017-04-15T08:58:28.190Z,1011.7
2017-04-15T08:59:31.035Z,1011.7
2017-04-15T09:00:34.000Z,1011.7
2017-04-15T09:01:36.336Z,1011.7
2017-04-15T09:02:39.179Z,1011.7
2017-04-15T09:03:41.573Z,1011.7
2017-04-15T09:04:44.417Z,1011.7
2017-04-15T09:05:47.005Z,1011.7
2017-04-15T09:06:49.847Z,1011.7
2017-04-15T09:07:52.184Z,1011.7
2017-04-15T09:08:55.031Z,1011.7
2017-04-15T09:09:57.868Z,1011.7
2017-04-15T09:11:00.506Z,1011.7
2017-04-15T09:12:02.840Z,1011.7
2017-04-15T09:13:05.573Z,1011.7
2017-04-15T09:14:08.409Z,1011.6
2017-04-15T09:15:10.747Z,1011.7
2017-04-15T09:16:13.839Z,1011.6
2017-04-15T09:17:16.191Z,1011.7
2017-04-15T09:18:19.044Z,1011.6
2017-04-15T09:19:21.881Z,1011.6
2017-04-15T09:20:24.216Z,1011.6
2017-04-15T09:21:27.356Z,1011.6
2017-04-15T09:22:29.687Z,1011.6
2017-04-15T09:23:32.523Z,1011.6
2017-04-15T09:24:34.856Z,1011.6
2017-04-15T09:25:37.693Z,1011.5
2017-04-15T09:26:40.613Z,1011.5
2017-04-15T09:27:42.945Z,1011.5
2017-04-15T09:28:45.785Z,1011.4
2017-04-15T09:29:48.500Z,1011.4
2017-04-15T09:30:50.833Z,1011.5
2017-04-15T09:31:53.924Z,1011.4
2017-04-15T09:32:56.497Z,1011.4
2017-04-15T09:33:58.829Z,1011.4
2017-04-15T09:36:04.079Z,1011.3
2017-04-15T09:37:07.227Z,1011.3
2017-04-15T09:38:09.805Z,1011.4
2017-04-15T09:39:12.256Z,1011.2
2017-04-15T09:40:15.103Z,1011.2
2017-04-15T09:41:17.452Z,1011.2
2017-04-15T09:42:20.782Z,1011.3
2017-04-15T09:43:23.113Z,1011.3
2017-04-15T09:44:25.456Z,1011.2
2017-04-15T09:45:28.294Z,1011.2
2017-04-15T09:46:31.137Z,1011.2
2017-04-15T09:47:33.775Z,1011.3
2017-04-15T09:48:36.113Z,1011.3
2017-04-15T09:49:38.956Z,1011.3
2017-04-15T09:50:41.796Z,1011.2
2017-04-15T09:51:44.132Z,1011.2
2017-04-15T09:52:47.424Z,1011.2
2017-04-15T09:53:49.815Z,1011.2
2017-04-15T09:54:52.149Z,1011.2
2017-04-15T09:55:54.984Z,1011.1
2017-04-15T09:56:57.821Z,1011.2
2017-04-15T09:58:00.410Z,1011.1
2017-04-15T09:59:03.247Z,1011.1
2017-04-15T10:00:05.579Z,1011.1
2017-04-15T10:01:08.290Z,1011.1
2017-04-15T10:02:11.001Z,1011.1
2017-04-15T10:03:14.140Z,1011.1
2017-04-15T10:04:16.480Z,1011.2
2017-04-15T10:05:19.324Z,1011.1
2017-04-15T10:06:21.776Z,1011.1
2017-04-15T10:07:24.609Z,1011
2017-04-15T10:08:27.206Z,1011.1
2017-04-15T10:10:32.451Z,1011.1
2017-04-15T10:11:35.294Z,1011.2
2017-04-15T10:12:37.641Z,1011.1
2017-04-15T10:13:40.783Z,1011.1
2017-04-15T10:14:43.135Z,1011.2
2017-04-15T10:15:45.838Z,1011.2
2017-04-15T10:16:48.680Z,1011.1
2017-04-15T10:17:51.019Z,1011.1
2017-04-15T10:18:54.162Z,1011.1
2017-04-15T10:19:56.502Z,1011.1
2017-04-15T10:20:59.338Z,1011.1
2017-04-15T10:22:01.675Z,1011.1
2017-04-15T10:23:04.514Z,1011.1
2017-04-15T10:24:07.653Z,1011
2017-04-15T10:25:09.993Z,1011
2017-04-15T10:26:12.744Z,1011
2017-04-15T10:27:15.080Z,1011
2017-04-15T10:28:17.917Z,1011
2017-04-15T10:29:21.061Z,1011
2017-04-15T10:30:23.263Z,1011.1
2017-04-15T10:31:25.800Z,1011
2017-04-15T10:32:28.636Z,1010.9
2017-04-15T10:33:31.476Z,1011
2017-04-15T10:34:34.065Z,1011
2017-04-15T10:35:36.774Z,1011
2017-04-15T10:36:39.614Z,1010.9
2017-04-15T10:37:41.954Z,1011
2017-04-15T10:38:44.798Z,1011
2017-04-15T10:40:50.581Z,1011
2017-04-15T10:41:52.919Z,1011
2017-04-15T10:42:55.260Z,1011
2017-04-15T10:43:58.099Z,1011
2017-04-15T10:45:00.988Z,1011
2017-04-15T10:46:03.576Z,1011
2017-04-15T10:47:06.425Z,1011
2017-04-15T10:48:08.757Z,1011
2017-04-15T10:49:11.598Z,1011.1
2017-04-15T10:50:14.451Z,1011.1
2017-04-15T10:51:17.085Z,1011.1
2017-04-15T10:52:19.425Z,1011.1
2017-04-15T10:53:22.363Z,1011.1
2017-04-15T10:54:24.701Z,1011.1
2017-04-15T10:55:27.535Z,1011
2017-04-15T10:56:30.677Z,1011
2017-04-15T10:57:33.022Z,1011
2017-04-15T10:58:35.871Z,1011
2017-04-15T10:59:38.222Z,1011
2017-04-15T11:00:41.065Z,1011
2017-04-15T11:01:44.021Z,1011
2017-04-15T11:02:46.352Z,1011
2017-04-15T11:04:51.600Z,1010.9
2017-04-15T11:05:54.442Z,1010.9
2017-04-15T11:06:57.578Z,1010.9
2017-04-15T11:09:02.320Z,1010.9
2017-04-15T11:10:05.159Z,1010.9
2017-04-15T11:11:07.504Z,1010.9
2017-04-15T11:12:10.600Z,1010.9
2017-04-15T11:13:12.938Z,1010.9
2017-04-15T11:14:15.642Z,1010.8
2017-04-15T11:15:18.492Z,1010.9
2017-04-15T11:16:21.330Z,1010.9
2017-04-15T11:17:23.919Z,1010.9
2017-04-15T11:18:26.623Z,1010.9
2017-04-15T11:19:28.964Z,1010.9
2017-04-15T11:20:31.802Z,1010.9
2017-04-15T11:21:34.510Z,1010.9
2017-04-15T11:22:37.374Z,1010.9
2017-04-15T11:23:39.710Z,1010.8
2017-04-15T11:24:42.551Z,1010.9
2017-04-15T11:25:45.395Z,1010.9
2017-04-15T11:26:47.731Z,1010.9
2017-04-15T11:27:50.875Z,1010.9
2017-04-15T11:28:53.315Z,1010.9
2017-04-15T11:29:55.651Z,1010.9
2017-04-15T11:30:58.492Z,1010.9
2017-04-15T11:32:01.336Z,1010.9
2017-04-15T11:33:03.979Z,1010.9
2017-04-15T11:34:06.314Z,1010.8
2017-04-15T11:35:09.224Z,1010.8
2017-04-15T11:36:12.066Z,1010.9
2017-04-15T11:37:14.405Z,1010.8
2017-04-15T11:38:17.597Z,1010.9
2017-04-15T11:40:22.336Z,1010.8
2017-04-15T11:41:25.191Z,1010.8
2017-04-15T11:42:28.032Z,1010.9
2017-04-15T11:43:30.678Z,1010.9
2017-04-15T11:45:35.919Z,1010.8
2017-04-15T11:46:38.767Z,1010.8
2017-04-15T11:47:41.530Z,1010.9
2017-04-15T11:48:43.983Z,1010.8
2017-04-15T11:49:46.827Z,1010.8
2017-04-15T11:50:49.174Z,1010.8
2017-04-15T11:51:52.016Z,1010.8
2017-04-15T11:52:54.860Z,1010.8
2017-04-15T11:53:57.460Z,1010.8
2017-04-15T11:54:59.794Z,1010.8
2017-04-15T11:56:02.635Z,1010.8
2017-04-15T11:57:05.478Z,1010.7
2017-04-15T11:58:07.912Z,1010.8
2017-04-15T11:59:11.008Z,1010.9
2017-04-15T12:00:13.588Z,1010.8
2017-04-15T12:01:16.010Z,1010.8
2017-04-15T12:02:18.849Z,1010.8
2017-04-15T12:03:21.186Z,1010.8
2017-04-15T12:04:24.272Z,1010.8
2017-04-15T12:05:26.667Z,1010.8
2017-04-15T12:06:29.512Z,1010.8
2017-04-15T12:07:32.223Z,1010.8
2017-04-15T12:08:34.564Z,1010.8
2017-04-15T12:09:37.657Z,1010.8
2017-04-15T12:10:40.006Z,1010.9
2017-04-15T12:11:42.845Z,1010.9
2017-04-15T12:12:45.706Z,1010.9
2017-04-15T12:13:48.176Z,1010.9
2017-04-15T12:15:53.681Z,1010.9
2017-04-15T12:16:56.014Z,1010.9
2017-04-15T12:19:01.763Z,1010.9
2017-04-15T12:20:04.099Z,1010.9
2017-04-15T12:21:07.242Z,1010.9
2017-04-15T12:22:09.573Z,1010.8
2017-04-15T12:23:12.276Z,1010.8
2017-04-15T12:24:14.988Z,1010.9
2017-04-15T12:25:17.823Z,1010.9
2017-04-15T12:26:20.464Z,1010.8
2017-04-15T12:27:22.995Z,1010.8
2017-04-15T12:28:25.430Z,1010.8
2017-04-15T12:29:28.277Z,1010.8
2017-04-15T12:30:31.125Z,1010.8
2017-04-15T12:31:33.769Z,1010.9
2017-04-15T12:32:36.105Z,1010.8
2017-04-15T12:33:38.945Z,1010.8
2017-04-15T12:34:41.848Z,1010.9
2017-04-15T12:35:44.375Z,1010.8
2017-04-15T12:36:47.518Z,1010.8
2017-04-15T12:37:49.852Z,1010.9
2017-04-15T12:38:52.289Z,1010.9
2017-04-15T12:39:55.143Z,1010.9
2017-04-15T12:40:57.482Z,1010.9
2017-04-15T12:42:00.575Z,1010.9
2017-04-15T12:43:02.909Z,1010.9
2017-04-15T12:44:05.750Z,1010.9
2017-04-15T12:45:08.617Z,1011
2017-04-15T12:46:11.329Z,1010.9
2017-04-15T12:47:13.917Z,1010.9
2017-04-15T12:48:16.351Z,1010.9
2017-04-15T12:49:19.058Z,1010.9
2017-04-15T12:50:21.894Z,1010.9
2017-04-15T12:51:24.240Z,1010.9
2017-04-15T12:52:27.478Z,1010.9
2017-04-15T12:53:29.814Z,1010.9
2017-04-15T12:55:35.059Z,1010.9
2017-04-15T12:56:37.898Z,1010.8
2017-04-15T12:57:41.041Z,1010.9
2017-04-15T12:58:43.382Z,1010.9
2017-04-15T12:59:45.718Z,1010.9
2017-04-15T13:00:48.566Z,1010.9
2017-04-15T13:01:51.415Z,1010.8
2017-04-15T13:02:54.430Z,1010.9
2017-04-15T13:03:56.767Z,1010.9
2017-04-15T13:04:59.161Z,1010.9
2017-04-15T13:06:02.001Z,1011
2017-04-15T13:07:04.844Z,1010.9
2017-04-15T13:08:07.489Z,1011
2017-04-15T13:09:09.824Z,1010.9
2017-04-15T13:10:12.527Z,1011
2017-04-15T13:11:15.366Z,1010.9
2017-04-15T13:12:18.204Z,1011
2017-04-15T13:13:20.804Z,1010.8
2017-04-15T13:14:23.195Z,1010.9
2017-04-15T13:15:26.034Z,1010.9
2017-04-15T13:16:28.883Z,1011
2017-04-15T13:17:31.283Z,1010.8
2017-04-15T13:18:34.428Z,1010.9
2017-04-15T13:19:36.761Z,1011
2017-04-15T13:20:39.465Z,1011
2017-04-15T13:21:42.304Z,1011
2017-04-15T13:22:44.642Z,1011
2017-04-15T13:23:47.781Z,1011
2017-04-15T13:24:50.119Z,1011
2017-04-15T13:25:52.959Z,1011.1
2017-04-15T13:26:55.794Z,1011
2017-04-15T13:27:58.129Z,1011
2017-04-15T13:29:01.274Z,1011
2017-04-15T13:31:06.519Z,1011
2017-04-15T13:32:08.854Z,1010.9
2017-04-15T13:33:11.691Z,1010.8
2017-04-15T13:35:17.237Z,1010.8
2017-04-15T13:36:19.497Z,1010.8
2017-04-15T13:37:22.337Z,1010.9
2017-04-15T13:38:25.177Z,1010.9
2017-04-15T13:39:27.524Z,1010.9
2017-04-15T13:40:30.665Z,1010.9
2017-04-15T13:41:33.002Z,1011
2017-04-15T13:42:35.865Z,1010.9
2017-04-15T13:43:38.238Z,1010.8
2017-04-15T13:44:41.078Z,1010.9
2017-04-15T13:45:44.220Z,1010.9
2017-04-15T13:46:46.561Z,1010.9
2017-04-15T13:47:49.399Z,1010.9
2017-04-15T13:48:51.738Z,1010.9
2017-04-15T13:49:54.580Z,1010.9
2017-04-15T13:50:57.724Z,1010.9
2017-04-15T13:52:00.059Z,1010.9
2017-04-15T13:53:02.397Z,1010.9
2017-04-15T13:54:05.232Z,1010.8
2017-04-15T13:55:08.071Z,1010.9
2017-04-15T13:56:11.167Z,1010.9
2017-04-15T13:57:13.498Z,1010.9
2017-04-15T13:58:16.200Z,1010.9
2017-04-15T13:59:18.594Z,1010.9
2017-04-15T14:00:21.676Z,1010.9
2017-04-15T14:01:24.408Z,1010.8
2017-04-15T14:02:26.744Z,1010.8
2017-04-15T14:03:29.588Z,1010.9
2017-04-15T14:04:32.431Z,1010.9
2017-04-15T14:05:34.786Z,1010.8
2017-04-15T14:06:37.931Z,1010.9
2017-04-15T14:07:40.279Z,1010.8
2017-04-15T14:08:43.117Z,1010.9
2017-04-15T14:09:45.823Z,1010.9
2017-04-15T14:10:48.162Z,1010.9
2017-04-15T14:11:51.304Z,1010.9
2017-04-15T14:12:53.645Z,1010.9
2017-04-15T14:14:58.890Z,1010.9
2017-04-15T14:16:01.734Z,1010.9
2017-04-15T14:17:04.879Z,1011
2017-04-15T14:18:07.223Z,1010.9
2017-04-15T14:19:09.654Z,1010.8
2017-04-15T14:20:12.493Z,1011